Vittoria — 3FJY5 — position and weather

sailwx.info

Track history (hours):
 
Tides and Currents Weather Stations Pressure Air Temp Water Temp Dewpoint Dewpoint Depression Visibility Wind Speed Wind Dir Waves Ship Positions

Vittoria

Last reported at 2018-Sep-02 21:03 UTC. Time now 2018-Sep-19 06:45 UTC.
Position N 01°13' E 105°02'.
Warning: this ship's position is 16 days out of date.

Length 211 m; draft 7 m.

Type: Cargo ship. MMSI: 354314000.

Date/timePositionNaut miles runAvg speedWind from/ knotsBaromVisibWave heightAir tempDewpointWater temp
2018-Sep-02 21:03N 01°13' E 105°02'410.3
2018-Sep-02 20:40N 01°15' E 104°59'210.8
2018-Sep-02 20:27N 01°16' E 104°56'511.1
2018-Sep-02 20:02N 01°18' E 104°52'111.0
2018-Sep-02 19:57N 01°18' E 104°51'611.1
2018-Sep-02 19:26N 01°19' E 104°45'411.0
2018-Sep-02 19:03N 01°20' E 104°41'112.3
2018-Sep-02 18:59N 01°20' E 104°41'611.4
2018-Sep-02 18:29N 01°21' E 104°35'1111.4
2018-Sep-02 17:30N 01°20' E 104°24'511.7
2018-Sep-02 17:02N 01°17' E 104°19'112.1
2018-Sep-02 17:00N 01°17' E 104°19'611.8
2018-Sep-02 16:30N 01°16' E 104°13'612.2
2018-Sep-02 16:02N 01°15' E 104°07'112.0
2018-Sep-02 15:59N 01°15' E 104°07'612.1
2018-Sep-02 15:30N 01°14' E 104°01'612.6
2018-Sep-02 15:03N 01°13' E 103°56'115.1
2018-Sep-02 14:59N 01°12' E 103°55'1212.9
2018-Sep-02 14:03N 01°06' E 103°44'1 8.9
2018-Sep-02 14:00N 01°06' E 103°44'611.9
2018-Sep-02 13:30N 01°03' E 103°39'611.1
2018-Sep-02 13:01N 01°05' E 103°34'010.6
2018-Sep-02 12:59N 01°05' E 103°34'511.2
2018-Sep-02 12:30N 01°08' E 103°29'511.1
2018-Sep-02 12:03N 01°11' E 103°25'1 8.5
2018-Sep-02 11:59N 01°11' E 103°25'511.3
2018-Sep-02 11:30N 01°15' E 103°20'511.1
2018-Sep-02 11:01N 01°18' E 103°16'010.9
2018-Sep-02 10:59N 01°18' E 103°16'810.7
2018-Sep-02 10:14N 01°24' E 103°10'  
2018-Aug-24 20:29N 01°32' E 103°06'1010.6
2018-Aug-24 19:33N 01°25' E 103°13'110.8
2018-Aug-24 19:30N 01°25' E 103°14'510.4
2018-Aug-24 19:03N 01°22' E 103°17'210.2
2018-Aug-24 18:53N 01°20' E 103°18'410.1
2018-Aug-24 18:29N 01°18' E 103°21'4 9.7
2018-Aug-24 18:03N 01°15' E 103°25'0 5.7
2018-Aug-24 18:00N 01°15' E 103°25'5 9.5
2018-Aug-24 17:31N 01°13' E 103°29'4 8.9
2018-Aug-24 17:03N 01°12' E 103°33'0 7.4
2018-Aug-24 17:00N 01°12' E 103°34'4 7.4
2018-Aug-24 16:30N 01°12' E 103°37'3 7.1
2018-Aug-24 16:03N 01°11' E 103°40'0 9.1
2018-Aug-24 16:01N 01°10' E 103°41'4 7.8
2018-Aug-24 15:30N 01°08' E 103°44'4 8.4
2018-Aug-24 15:04N 01°10' E 103°47'0 9.1
2018-Aug-24 15:00N 01°10' E 103°48'9 9.7
2018-Aug-24 14:04N 01°14' E 103°56'0 4.0
2018-Aug-24 14:01N 01°14' E 103°56'510.7
2018-Aug-24 13:30N 01°16' E 104°01'510.3
2018-Aug-24 13:03N 01°17' E 104°06'110.4
2018-Aug-24 12:59N 01°17' E 104°07'510.4
2018-Aug-24 12:30N 01°18' E 104°12'510.7
2018-Aug-24 12:03N 01°18' E 104°16'111.1
2018-Aug-24 11:58N 01°19' E 104°17'510.6
2018-Aug-24 11:30N 01°21' E 104°22'510.4
2018-Aug-24 11:02N 01°23' E 104°26'1 9.3
2018-Aug-24 10:57N 01°24' E 104°27'510.0
2018-Aug-24 10:29N 01°24' E 104°31'7 9.8
2018-Aug-24 09:44N 01°25' E 104°39'4 9.7
2018-Aug-24 09:16N 01°24' E 104°43'511.0
2018-Aug-24 08:52N 01°22' E 104°47'711.8
2018-Aug-24 08:14N 01°19' E 104°54'13312.0
2018-Aug-23 21:08S 00°04' E 106°38'  
Track history (hours):
 
Tides and Currents Weather Stations Pressure Air Temp Water Temp Dewpoint Dewpoint Depression Visibility Wind Speed Wind Dir Waves Ship Positions

Vittoria

Last reported at 2018-Sep-02 21:03 UTC. Time now 2018-Sep-19 06:45 UTC.
Position N 01°13' E 105°02'.
Warning: this ship's position is 16 days out of date.

Length 211 m; draft 7 m.

Type: Cargo ship. MMSI: 354314000.

Date/timePositionNaut miles runAvg speedWind from/ knotsBaromVisibWave heightAir tempDewpointWater temp
2018-Sep-02 21:03N 01°13' E 105°02'410.3
2018-Sep-02 20:40N 01°15' E 104°59'210.8
2018-Sep-02 20:27N 01°16' E 104°56'511.1
2018-Sep-02 20:02N 01°18' E 104°52'111.0
2018-Sep-02 19:57N 01°18' E 104°51'611.1
2018-Sep-02 19:26N 01°19' E 104°45'411.0
2018-Sep-02 19:03N 01°20' E 104°41'112.3
2018-Sep-02 18:59N 01°20' E 104°41'611.4
2018-Sep-02 18:29N 01°21' E 104°35'1111.4
2018-Sep-02 17:30N 01°20' E 104°24'511.7
2018-Sep-02 17:02N 01°17' E 104°19'112.1
2018-Sep-02 17:00N 01°17' E 104°19'611.8
2018-Sep-02 16:30N 01°16' E 104°13'612.2
2018-Sep-02 16:02N 01°15' E 104°07'112.0
2018-Sep-02 15:59N 01°15' E 104°07'612.1
2018-Sep-02 15:30N 01°14' E 104°01'612.6
2018-Sep-02 15:03N 01°13' E 103°56'115.1
2018-Sep-02 14:59N 01°12' E 103°55'1212.9
2018-Sep-02 14:03N 01°06' E 103°44'1 8.9
2018-Sep-02 14:00N 01°06' E 103°44'611.9
2018-Sep-02 13:30N 01°03' E 103°39'611.1
2018-Sep-02 13:01N 01°05' E 103°34'010.6
2018-Sep-02 12:59N 01°05' E 103°34'511.2
2018-Sep-02 12:30N 01°08' E 103°29'511.1
2018-Sep-02 12:03N 01°11' E 103°25'1 8.5
2018-Sep-02 11:59N 01°11' E 103°25'511.3
2018-Sep-02 11:30N 01°15' E 103°20'511.1
2018-Sep-02 11:01N 01°18' E 103°16'010.9
2018-Sep-02 10:59N 01°18' E 103°16'810.7
2018-Sep-02 10:14N 01°24' E 103°10'  
2018-Aug-24 20:29N 01°32' E 103°06'1010.6
2018-Aug-24 19:33N 01°25' E 103°13'110.8
2018-Aug-24 19:30N 01°25' E 103°14'510.4
2018-Aug-24 19:03N 01°22' E 103°17'210.2
2018-Aug-24 18:53N 01°20' E 103°18'410.1
2018-Aug-24 18:29N 01°18' E 103°21'4 9.7
2018-Aug-24 18:03N 01°15' E 103°25'0 5.7
2018-Aug-24 18:00N 01°15' E 103°25'5 9.5
2018-Aug-24 17:31N 01°13' E 103°29'4 8.9
2018-Aug-24 17:03N 01°12' E 103°33'0 7.4
2018-Aug-24 17:00N 01°12' E 103°34'4 7.4
2018-Aug-24 16:30N 01°12' E 103°37'3 7.1
2018-Aug-24 16:03N 01°11' E 103°40'0 9.1
2018-Aug-24 16:01N 01°10' E 103°41'4 7.8
2018-Aug-24 15:30N 01°08' E 103°44'4 8.4
2018-Aug-24 15:04N 01°10' E 103°47'0 9.1
2018-Aug-24 15:00N 01°10' E 103°48'9 9.7
2018-Aug-24 14:04N 01°14' E 103°56'0 4.0
2018-Aug-24 14:01N 01°14' E 103°56'510.7
2018-Aug-24 13:30N 01°16' E 104°01'510.3
2018-Aug-24 13:03N 01°17' E 104°06'110.4
2018-Aug-24 12:59N 01°17' E 104°07'510.4
2018-Aug-24 12:30N 01°18' E 104°12'510.7
2018-Aug-24 12:03N 01°18' E 104°16'111.1
2018-Aug-24 11:58N 01°19' E 104°17'510.6
2018-Aug-24 11:30N 01°21' E 104°22'510.4
2018-Aug-24 11:02N 01°23' E 104°26'1 9.3
2018-Aug-24 10:57N 01°24' E 104°27'510.0
2018-Aug-24 10:29N 01°24' E 104°31'7 9.8
2018-Aug-24 09:44N 01°25' E 104°39'4 9.7
2018-Aug-24 09:16N 01°24' E 104°43'511.0
2018-Aug-24 08:52N 01°22' E 104°47'711.8
2018-Aug-24 08:14N 01°19' E 104°54'13312.0
2018-Aug-23 21:08S 00°04' E 106°38'  

Dump ship's entire track history